Terminal Aerodrome Forecast
Issued by NWS

Home | Current Version | Previous Version | Text Only | Print | Product List | Glossary On
Versions: 1 2 3 4 5 6 7 8 9 10 11 12 13 14 15
000
FTUS42 KMLB 242330
TAFTIX
TAF
KTIX 242330Z 2500/2524 01005KT P6SM FEW030
     FM250700 00000KT 3SM BR FEW004 SCT010
      TEMPO 2509/2513 1SM BR SCT004
     FM251300 23004KT 5SM BR SCT004 BKN010
     FM251500 25007KT P6SM SCT015 SCT035=

USA.gov is the U.S. government's official web portal to all federal, state and local government web resources and services.